createdAt,value
2015-08-31T00:00:11.068Z,53.66
2015-08-31T00:00:23.443Z,53.66
2015-08-31T00:00:35.818Z,53.95
2015-08-31T00:00:47.490Z,54.04
2015-08-31T00:00:59.865Z,54.04
2015-08-31T00:01:12.257Z,54.24
2015-08-31T00:01:24.632Z,53.95
2015-08-31T00:01:37.007Z,53.85
2015-08-31T00:01:48.663Z,53.76
2015-08-31T00:02:01.038Z,54.14
2015-08-31T00:02:13.431Z,54.04
2015-08-31T00:02:25.790Z,54.04
2015-08-31T00:02:38.181Z,53.95
2015-08-31T00:02:50.556Z,53.85
2015-08-31T00:03:02.931Z,53.85
2015-08-31T00:03:15.308Z,53.76
2015-08-31T00:03:27.699Z,53.76
2015-08-31T00:03:40.074Z,54.14
2015-08-31T00:03:52.449Z,53.85
2015-08-31T00:04:04.824Z,53.85
2015-08-31T00:04:17.201Z,53.85
2015-08-31T00:04:29.591Z,54.14
2015-08-31T00:04:41.966Z,53.95
2015-08-31T00:04:54.341Z,53.85
2015-08-31T00:05:06.716Z,53.85
2015-08-31T00:05:19.093Z,53.76
2015-08-31T00:05:31.468Z,53.85
2015-08-31T00:05:43.859Z,53.76
2015-08-31T00:05:56.265Z,53.76
2015-08-31T00:06:08.656Z,53.85
2015-08-31T00:06:21.033Z,53.76
2015-08-31T00:06:33.423Z,53.76
2015-08-31T00:06:45.814Z,53.85
2015-08-31T00:06:58.205Z,53.76
2015-08-31T00:07:10.595Z,53.76
2015-08-31T00:07:23.019Z,53.76
2015-08-31T00:07:35.410Z,53.85
2015-08-31T00:07:47.816Z,53.85
2015-08-31T00:08:00.222Z,53.66
2015-08-31T00:08:12.644Z,53.76
2015-08-31T00:08:25.052Z,53.76
2015-08-31T00:08:37.459Z,53.76
2015-08-31T00:08:49.881Z,53.66
2015-08-31T00:09:02.287Z,53.66
2015-08-31T00:09:14.677Z,53.56
2015-08-31T00:09:27.101Z,53.85
2015-08-31T00:09:39.476Z,54.04
2015-08-31T00:09:51.851Z,54.04
2015-08-31T00:10:04.226Z,53.66
2015-08-31T00:10:16.601Z,53.76
2015-08-31T00:10:28.978Z,53.85
2015-08-31T00:10:41.353Z,53.85
2015-08-31T00:10:53.728Z,53.95
2015-08-31T00:11:06.103Z,53.38
2015-08-31T00:11:18.494Z,53.66
2015-08-31T00:11:30.871Z,53.38
2015-08-31T00:11:43.246Z,54.04
2015-08-31T00:11:55.621Z,54.04
2015-08-31T00:12:07.996Z,53.56
2015-08-31T00:12:20.402Z,53.76
2015-08-31T00:12:32.794Z,53.85
2015-08-31T00:12:45.169Z,53.66
2015-08-31T00:12:57.544Z,53.95
2015-08-31T00:13:09.919Z,53.95
2015-08-31T00:13:22.294Z,53.76
2015-08-31T00:13:34.672Z,53.85
2015-08-31T00:13:47.062Z,53.76
2015-08-31T00:13:59.453Z,53.76
2015-08-31T00:14:11.828Z,53.66
2015-08-31T00:14:24.203Z,54.04
2015-08-31T00:14:36.580Z,53.85
2015-08-31T00:14:48.955Z,53.85
2015-08-31T00:15:01.346Z,54.04
2015-08-31T00:15:13.721Z,53.85
2015-08-31T00:15:26.111Z,53.66
2015-08-31T00:15:38.503Z,53.76
2015-08-31T00:15:50.894Z,53.85
2015-08-31T00:16:03.284Z,53.66
2015-08-31T00:16:15.675Z,53.66
2015-08-31T00:16:28.065Z,53.76
2015-08-31T00:16:40.490Z,53.76
2015-08-31T00:16:52.912Z,53.76
2015-08-31T00:17:05.303Z,53.66
2015-08-31T00:17:17.693Z,53.85
2015-08-31T00:17:30.100Z,53.76
2015-08-31T00:17:42.523Z,53.76
2015-08-31T00:17:54.929Z,53.56
2015-08-31T00:18:07.335Z,53.76
2015-08-31T00:18:19.741Z,53.66
2015-08-31T00:18:32.148Z,53.66
2015-08-31T00:18:44.557Z,53.76
2015-08-31T00:18:56.276Z,53.76
2015-08-31T00:19:08.651Z,53.56
2015-08-31T00:19:21.026Z,53.56
2015-08-31T00:19:33.416Z,53.76
2015-08-31T00:19:45.792Z,53.95
2015-08-31T00:19:58.167Z,53.76
2015-08-31T00:20:10.542Z,53.85
2015-08-31T00:20:22.917Z,53.85
2015-08-31T00:20:35.292Z,53.85
2015-08-31T00:20:47.686Z,53.85
2015-08-31T00:21:00.061Z,53.66
2015-08-31T00:21:12.420Z,53.66
2015-08-31T00:21:24.795Z,53.85
2015-08-31T00:21:37.170Z,53.85
2015-08-31T00:21:49.546Z,53.85
2015-08-31T00:22:01.937Z,53.66
2015-08-31T00:22:14.312Z,53.85
2015-08-31T00:22:26.671Z,53.85
2015-08-31T00:22:39.046Z,53.95
2015-08-31T00:22:51.423Z,53.76
2015-08-31T00:23:03.783Z,53.76
2015-08-31T00:23:16.158Z,53.56
2015-08-31T00:23:28.548Z,54.14
2015-08-31T00:23:40.923Z,53.85
2015-08-31T00:23:53.300Z,54.14
2015-08-31T00:24:05.675Z,54.24
2015-08-31T00:24:18.050Z,53.76
2015-08-31T00:24:30.425Z,53.95
2015-08-31T00:24:42.800Z,54.04
2015-08-31T00:24:55.193Z,53.85
2015-08-31T00:25:07.583Z,54.14
2015-08-31T00:25:19.974Z,54.14
2015-08-31T00:25:32.349Z,53.95
2015-08-31T00:25:44.740Z,54.24
2015-08-31T00:25:57.133Z,54.24
2015-08-31T00:26:09.555Z,54.24
2015-08-31T00:26:21.977Z,54.04
2015-08-31T00:26:34.383Z,54.04
2015-08-31T00:26:46.805Z,53.95
2015-08-31T00:26:59.212Z,54.24
2015-08-31T00:27:11.634Z,54.43
2015-08-31T00:27:24.041Z,54.33
2015-08-31T00:27:36.478Z,54.04
2015-08-31T00:27:48.837Z,54.33
2015-08-31T00:28:01.215Z,54.14
2015-08-31T00:28:13.606Z,54.33
2015-08-31T00:28:25.965Z,54.33
2015-08-31T00:28:38.356Z,54.24
2015-08-31T00:28:50.715Z,54.24
2015-08-31T00:29:03.108Z,54.04
2015-08-31T00:29:15.483Z,54.14
2015-08-31T00:29:27.858Z,53.95
2015-08-31T00:29:40.233Z,53.85
2015-08-31T00:29:52.608Z,54.33
2015-08-31T00:30:04.969Z,54.33
2015-08-31T00:30:17.360Z,54.43
2015-08-31T00:30:29.719Z,54.39
2015-08-31T00:30:42.131Z,54.14
2015-08-31T00:30:54.506Z,54.52
2015-08-31T00:31:06.882Z,54.71
2015-08-31T00:31:18.542Z,54.71
2015-08-31T00:31:30.932Z,55.09
2015-08-31T00:31:43.334Z,54.97
2015-08-31T00:31:55.709Z,54.88
2015-08-31T00:32:08.102Z,54.8
2015-08-31T00:32:20.477Z,55.09
2015-08-31T00:32:32.842Z,54.8
2015-08-31T00:32:45.248Z,55.35
2015-08-31T00:32:57.623Z,55.35
2015-08-31T00:33:10.041Z,55.07
2015-08-31T00:33:22.416Z,55.07
2015-08-31T00:33:34.806Z,55.07
2015-08-31T00:33:47.213Z,55.26
2015-08-31T00:33:59.603Z,55.07
2015-08-31T00:34:12.022Z,55.07
2015-08-31T00:34:24.413Z,55.44
2015-08-31T00:34:36.804Z,55.35
2015-08-31T00:34:49.210Z,55.57
2015-08-31T00:35:01.632Z,55.54
2015-08-31T00:35:14.082Z,55.47
2015-08-31T00:35:26.504Z,55.47
2015-08-31T00:35:38.191Z,55.44
2015-08-31T00:35:50.613Z,55.54
2015-08-31T00:36:03.019Z,55.35
2015-08-31T00:36:15.470Z,55.47
2015-08-31T00:36:27.892Z,55.35
2015-08-31T00:36:40.298Z,55.44
2015-08-31T00:36:52.704Z,55.44
2015-08-31T00:37:05.110Z,55.44
2015-08-31T00:37:17.526Z,55.54
2015-08-31T00:37:29.917Z,55.44
2015-08-31T00:37:42.292Z,55.63
2015-08-31T00:37:54.683Z,55.54
2015-08-31T00:38:07.058Z,55.54
2015-08-31T00:38:18.732Z,55.63
2015-08-31T00:38:31.107Z,55.63
2015-08-31T00:38:43.482Z,55.83
2015-08-31T00:38:55.857Z,55.73
2015-08-31T00:39:08.232Z,55.63
2015-08-31T00:39:20.623Z,55.63
2015-08-31T00:39:32.998Z,55.73
2015-08-31T00:39:45.388Z,55.73
2015-08-31T00:39:57.763Z,55.73
2015-08-31T00:40:10.154Z,55.92
2015-08-31T00:40:22.547Z,55.83
2015-08-31T00:40:34.922Z,55.63
2015-08-31T00:40:47.297Z,55.73
2015-08-31T00:40:59.672Z,55.73
2015-08-31T00:41:12.047Z,55.73
2015-08-31T00:41:24.439Z,55.92
2015-08-31T00:41:36.111Z,55.92
2015-08-31T00:41:47.783Z,55.83
2015-08-31T00:42:00.158Z,55.92
2015-08-31T00:42:12.533Z,55.83
2015-08-31T00:42:24.922Z,55.92
2015-08-31T00:42:37.297Z,55.63
2015-08-31T00:42:49.672Z,55.73
2015-08-31T00:43:02.062Z,55.73
2015-08-31T00:43:14.453Z,55.83
2015-08-31T00:43:26.133Z,55.63
2015-08-31T00:43:38.524Z,55.63
2015-08-31T00:43:50.899Z,55.73
2015-08-31T00:44:03.289Z,55.73
2015-08-31T00:44:15.695Z,55.44
2015-08-31T00:44:28.109Z,55.54
2015-08-31T00:44:40.515Z,55.63
2015-08-31T00:44:52.921Z,55.54
2015-08-31T00:45:05.327Z,55.73
2015-08-31T00:45:17.734Z,55.63
2015-08-31T00:45:30.148Z,55.73
2015-08-31T00:45:42.570Z,55.63
2015-08-31T00:45:54.992Z,55.63
2015-08-31T00:46:07.398Z,55.92
2015-08-31T00:46:19.820Z,55.73
2015-08-31T00:46:32.264Z,55.83
2015-08-31T00:46:44.639Z,55.92
2015-08-31T00:46:57.014Z,55.63
2015-08-31T00:47:09.389Z,55.92
2015-08-31T00:47:21.764Z,55.83
2015-08-31T00:47:34.130Z,55.92
2015-08-31T00:47:46.520Z,55.73
2015-08-31T00:47:58.895Z,55.83
2015-08-31T00:48:11.286Z,55.92
2015-08-31T00:48:23.677Z,55.92
2015-08-31T00:48:36.056Z,55.83
2015-08-31T00:48:47.712Z,55.92
2015-08-31T00:49:00.087Z,55.92
2015-08-31T00:49:11.759Z,55.73
2015-08-31T00:49:24.134Z,55.73
2015-08-31T00:49:36.528Z,55.63
2015-08-31T00:49:48.903Z,55.83
2015-08-31T00:50:01.278Z,55.63
2015-08-31T00:50:13.653Z,55.83
2015-08-31T00:50:26.028Z,55.83
2015-08-31T00:50:38.407Z,55.73
2015-08-31T00:50:50.782Z,56.11
2015-08-31T00:51:03.173Z,56.02
2015-08-31T00:51:15.548Z,56.11
2015-08-31T00:51:27.923Z,56.02
2015-08-31T00:51:40.302Z,56.21
2015-08-31T00:51:52.677Z,55.92
2015-08-31T00:52:05.052Z,56.11
2015-08-31T00:52:17.427Z,56.11
2015-08-31T00:52:29.818Z,56.11
2015-08-31T00:52:42.211Z,56.11
2015-08-31T00:52:54.586Z,56.11
2015-08-31T00:53:06.977Z,56.21
2015-08-31T00:53:19.352Z,56.11
2015-08-31T00:53:31.742Z,56.21
2015-08-31T00:53:44.152Z,56.3
2015-08-31T00:53:56.574Z,56.21
2015-08-31T00:54:08.980Z,56.3
2015-08-31T00:54:21.386Z,56.49
2015-08-31T00:54:33.792Z,56.11
2015-08-31T00:54:46.202Z,56.11
2015-08-31T00:54:58.608Z,56.68
2015-08-31T00:55:10.311Z,56.49
2015-08-31T00:55:22.733Z,56.21
2015-08-31T00:55:35.139Z,56.3
2015-08-31T00:55:47.564Z,56.3
2015-08-31T00:55:59.923Z,56.4
2015-08-31T00:56:12.314Z,56.4
2015-08-31T00:56:24.689Z,56.3
2015-08-31T00:56:37.048Z,56.59
2015-08-31T00:56:49.442Z,56.59
2015-08-31T00:57:01.817Z,56.59
2015-08-31T00:57:14.192Z,56.4
2015-08-31T00:57:26.567Z,56.4
2015-08-31T00:57:38.958Z,56.49
2015-08-31T00:57:51.335Z,57.07
2015-08-31T00:58:03.710Z,56.49
2015-08-31T00:58:16.085Z,56.49
2015-08-31T00:58:28.460Z,56.4
2015-08-31T00:58:40.835Z,57.16
2015-08-31T00:58:53.243Z,56.78
2015-08-31T00:59:05.618Z,56.78
2015-08-31T00:59:17.993Z,56.4
2015-08-31T00:59:30.368Z,57.16
2015-08-31T00:59:42.743Z,57.07
2015-08-31T00:59:55.121Z,56.87
2015-08-31T01:00:07.496Z,57.16
2015-08-31T01:00:19.886Z,56.78
2015-08-31T01:00:32.261Z,56.87
2015-08-31T01:00:44.636Z,56.78
2015-08-31T01:00:57.013Z,57.04
2015-08-31T01:01:09.388Z,56.59
2015-08-31T01:01:21.763Z,56.59
2015-08-31T01:01:34.138Z,56.78
2015-08-31T01:01:46.529Z,56.59
2015-08-31T01:01:58.923Z,56.59
2015-08-31T01:02:11.298Z,56.49
2015-08-31T01:02:23.673Z,56.65
2015-08-31T01:02:36.048Z,56.65
2015-08-31T01:02:48.423Z,56.49
2015-08-31T01:03:00.814Z,56.68
2015-08-31T01:03:13.236Z,56.59
2015-08-31T01:03:25.627Z,56.59
2015-08-31T01:03:38.049Z,56.59
2015-08-31T01:03:50.455Z,56.87
2015-08-31T01:04:02.864Z,56.97
2015-08-31T01:04:15.255Z,56.46
2015-08-31T01:04:27.661Z,56.56
2015-08-31T01:04:40.083Z,56.4
2015-08-31T01:04:52.489Z,56.49
2015-08-31T01:05:04.896Z,56.46
2015-08-31T01:05:17.287Z,56.4
2015-08-31T01:05:29.662Z,56.21
2015-08-31T01:05:42.037Z,56.4
2015-08-31T01:05:54.412Z,56.3
2015-08-31T01:06:06.790Z,56.27
2015-08-31T01:06:19.165Z,56.3
2015-08-31T01:06:30.821Z,56.18
2015-08-31T01:06:43.196Z,56.37
2015-08-31T01:06:55.587Z,56.18
2015-08-31T01:07:07.964Z,56.37
2015-08-31T01:07:20.339Z,56.3
2015-08-31T01:07:32.714Z,56.4
2015-08-31T01:07:45.089Z,56.37
2015-08-31T01:07:57.464Z,56.46
2015-08-31T01:08:09.841Z,56.46
2015-08-31T01:08:22.232Z,56.37
2015-08-31T01:08:34.607Z,56.37
2015-08-31T01:08:46.982Z,56.46
2015-08-31T01:08:59.357Z,56.46
2015-08-31T01:09:11.733Z,56.37
2015-08-31T01:09:24.123Z,56.56
2015-08-31T01:09:36.498Z,56.37
2015-08-31T01:09:48.873Z,57.04
2015-08-31T01:10:01.264Z,56.94
2015-08-31T01:10:13.641Z,56.85
2015-08-31T01:10:26.016Z,56.56
2015-08-31T01:10:38.391Z,56.56
2015-08-31T01:10:50.766Z,56.65
2015-08-31T01:11:03.141Z,56.46
2015-08-31T01:11:15.533Z,56.56
2015-08-31T01:11:27.924Z,56.56
2015-08-31T01:11:40.315Z,56.46
2015-08-31T01:11:52.721Z,56.56
2015-08-31T01:12:05.096Z,56.65
2015-08-31T01:12:17.504Z,56.75
2015-08-31T01:12:29.895Z,56.46
2015-08-31T01:12:42.317Z,56.46
2015-08-31T01:12:54.723Z,56.56
2015-08-31T01:13:07.129Z,56.37
2015-08-31T01:13:19.537Z,56.56
2015-08-31T01:13:31.928Z,56.75
2015-08-31T01:13:44.334Z,57.51
2015-08-31T01:13:55.334Z,57.13
2015-08-31T01:14:07.741Z,57.04
2015-08-31T01:14:20.149Z,56.94
2015-08-31T01:14:32.539Z,57.04
2015-08-31T01:14:44.243Z,56.94
2015-08-31T01:14:56.618Z,56.94
2015-08-31T01:15:08.993Z,57.04
2015-08-31T01:15:21.385Z,57.04
2015-08-31T01:15:33.760Z,56.94
2015-08-31T01:15:46.135Z,57.13
2015-08-31T01:15:58.510Z,56.75
2015-08-31T01:16:10.885Z,56.94
2015-08-31T01:16:23.262Z,56.94
2015-08-31T01:16:35.637Z,57.07
2015-08-31T01:16:48.012Z,56.94
2015-08-31T01:17:00.387Z,57.04
2015-08-31T01:17:12.762Z,57.04
2015-08-31T01:17:25.139Z,56.94
2015-08-31T01:17:37.514Z,57.04
2015-08-31T01:17:49.905Z,56.94
2015-08-31T01:18:02.280Z,57.04
2015-08-31T01:18:14.655Z,56.94
2015-08-31T01:18:27.032Z,57.04
2015-08-31T01:18:39.407Z,57.32
2015-08-31T01:18:51.782Z,57.04
2015-08-31T01:19:04.157Z,56.56
2015-08-31T01:19:16.532Z,56.78
2015-08-31T01:19:28.924Z,56.56
2015-08-31T01:19:41.299Z,56.56
2015-08-31T01:19:53.690Z,56.46
2015-08-31T01:20:06.065Z,56.59
2015-08-31T01:20:18.440Z,56.37
2015-08-31T01:20:30.817Z,56.85
2015-08-31T01:20:43.208Z,56.65
2015-08-31T01:20:55.598Z,56.56
2015-08-31T01:21:07.989Z,56.56
2015-08-31T01:21:20.380Z,56.59
2015-08-31T01:21:32.772Z,56.56
2015-08-31T01:21:45.163Z,56.56
2015-08-31T01:21:57.569Z,56.56
2015-08-31T01:22:09.975Z,56.56
2015-08-31T01:22:22.397Z,56.59
2015-08-31T01:22:34.805Z,56.68
2015-08-31T01:22:47.212Z,56.78
2015-08-31T01:22:59.618Z,56.59
2015-08-31T01:23:12.024Z,56.49
2015-08-31T01:23:24.462Z,57.07
2015-08-31T01:23:36.854Z,57.07
2015-08-31T01:23:49.261Z,56.87
2015-08-31T01:24:01.667Z,56.97
2015-08-31T01:24:14.073Z,56.94
2015-08-31T01:24:26.448Z,56.97
2015-08-31T01:24:38.825Z,57.26
2015-08-31T01:24:51.200Z,56.87
2015-08-31T01:25:03.575Z,56.97
2015-08-31T01:25:15.231Z,56.97
2015-08-31T01:25:27.606Z,57.07
2015-08-31T01:25:39.999Z,57.07
2015-08-31T01:25:52.390Z,56.97
2015-08-31T01:26:04.765Z,56.97
2015-08-31T01:26:17.140Z,56.78
2015-08-31T01:26:29.515Z,57.07
2015-08-31T01:26:41.892Z,56.78
2015-08-31T01:26:54.267Z,57.07
2015-08-31T01:27:06.657Z,57.16
2015-08-31T01:27:19.032Z,57.35
2015-08-31T01:27:31.407Z,57.16
2015-08-31T01:27:43.800Z,57.16
2015-08-31T01:27:56.175Z,57.07
2015-08-31T01:28:08.550Z,57.07
2015-08-31T01:28:20.925Z,56.97
2015-08-31T01:28:33.300Z,57.16
2015-08-31T01:28:45.692Z,56.97
2015-08-31T01:28:58.067Z,57.07
2015-08-31T01:29:10.442Z,56.97
2015-08-31T01:29:22.817Z,57.07
2015-08-31T01:29:35.192Z,56.87
2015-08-31T01:29:47.569Z,56.87
2015-08-31T01:29:59.944Z,57.26
2015-08-31T01:30:12.335Z,57.07
2015-08-31T01:30:24.726Z,57.16
2015-08-31T01:30:37.116Z,57.07
2015-08-31T01:30:49.509Z,56.87
2015-08-31T01:31:01.900Z,56.97
2015-08-31T01:31:14.290Z,56.97
2015-08-31T01:31:26.696Z,56.97
2015-08-31T01:31:39.103Z,57.07
2015-08-31T01:31:51.510Z,57.07
2015-08-31T01:32:03.916Z,56.78
2015-08-31T01:32:16.322Z,56.59
2015-08-31T01:32:28.729Z,56.59
2015-08-31T01:32:41.135Z,56.68
2015-08-31T01:32:53.575Z,56.68
2015-08-31T01:33:05.982Z,56.49
2015-08-31T01:33:18.388Z,56.49
2015-08-31T01:33:30.810Z,56.59
2015-08-31T01:33:43.185Z,56.49
2015-08-31T01:33:55.577Z,56.49
2015-08-31T01:34:07.952Z,56.49
2015-08-31T01:34:20.327Z,56.49
2015-08-31T01:34:32.702Z,56.4
2015-08-31T01:34:45.077Z,56.59
2015-08-31T01:34:57.454Z,56.68
2015-08-31T01:35:09.829Z,56.49
2015-08-31T01:35:22.204Z,56.59
2015-08-31T01:35:34.579Z,56.3
2015-08-31T01:35:46.251Z,56.3
2015-08-31T01:35:58.627Z,56.59
2015-08-31T01:36:11.002Z,56.49
2015-08-31T01:36:23.377Z,56.59
2015-08-31T01:36:35.784Z,56.49
2015-08-31T01:36:48.159Z,56.59
2015-08-31T01:37:00.537Z,56.49
2015-08-31T01:37:12.912Z,56.3
2015-08-31T01:37:25.271Z,56.49
2015-08-31T01:37:37.521Z,56.68
2015-08-31T01:37:49.896Z,56.78
2015-08-31T01:38:02.273Z,57.16
2015-08-31T01:38:14.664Z,56.87
2015-08-31T01:38:27.054Z,56.97
2015-08-31T01:38:39.429Z,57.07
2015-08-31T01:38:51.804Z,56.97
2015-08-31T01:39:04.180Z,56.97
2015-08-31T01:39:16.555Z,57.16
2015-08-31T01:39:28.930Z,57.26
2015-08-31T01:39:41.336Z,57.35
2015-08-31T01:39:53.711Z,57.07
2015-08-31T01:40:06.104Z,57.16
2015-08-31T01:40:18.479Z,57.26
2015-08-31T01:40:30.870Z,56.87
2015-08-31T01:40:43.276Z,57.16
2015-08-31T01:40:55.682Z,56.87
2015-08-31T01:41:08.106Z,56.97
2015-08-31T01:41:20.544Z,57.07
2015-08-31T01:41:32.934Z,57.16
2015-08-31T01:41:45.340Z,56.59
2015-08-31T01:41:57.731Z,56.49
2015-08-31T01:42:10.156Z,56.49
2015-08-31T01:42:22.562Z,56.4
2015-08-31T01:42:34.953Z,56.59
2015-08-31T01:42:47.343Z,56.49
2015-08-31T01:42:59.750Z,56.4
2015-08-31T01:43:12.141Z,56.78
2015-08-31T01:43:24.532Z,56.49
2015-08-31T01:43:36.907Z,56.59
2015-08-31T01:43:49.282Z,57.07
2015-08-31T01:44:01.657Z,56.97
2015-08-31T01:44:14.035Z,56.59
2015-08-31T01:44:26.410Z,56.59
2015-08-31T01:44:38.785Z,56.4
2015-08-31T01:44:51.160Z,56.3
2015-08-31T01:45:03.551Z,56.3
2015-08-31T01:45:15.911Z,56.4
2015-08-31T01:45:28.302Z,56.49
2015-08-31T01:45:40.677Z,56.3
2015-08-31T01:45:53.052Z,56.4
2015-08-31T01:46:05.427Z,56.4
2015-08-31T01:46:17.819Z,56.4
2015-08-31T01:46:30.194Z,56.49
2015-08-31T01:46:42.569Z,56.4
2015-08-31T01:46:54.225Z,56.4
2015-08-31T01:47:05.882Z,56.3
2015-08-31T01:47:18.259Z,56.4
2015-08-31T01:47:30.634Z,56.4
2015-08-31T01:47:43.024Z,56.49
2015-08-31T01:47:55.399Z,56.49
2015-08-31T01:48:07.774Z,56.3
2015-08-31T01:48:20.151Z,56.78
2015-08-31T01:48:32.526Z,56.59
2015-08-31T01:48:44.901Z,56.78
2015-08-31T01:48:57.292Z,56.59
2015-08-31T01:49:09.683Z,56.49
2015-08-31T01:49:22.075Z,56.49
2015-08-31T01:49:34.466Z,56.49
2015-08-31T01:49:46.856Z,56.59
2015-08-31T01:49:59.231Z,56.4
2015-08-31T01:50:11.638Z,56.49
2015-08-31T01:50:24.030Z,56.49
2015-08-31T01:50:36.437Z,56.49
2015-08-31T01:50:48.843Z,56.4
2015-08-31T01:51:01.265Z,56.3
2015-08-31T01:51:13.671Z,56.3
2015-08-31T01:51:26.080Z,56.3
2015-08-31T01:51:38.502Z,56.21
2015-08-31T01:51:50.940Z,56.4
2015-08-31T01:52:03.346Z,56.3
2015-08-31T01:52:15.752Z,56.3
2015-08-31T01:52:28.175Z,56.3
2015-08-31T01:52:40.550Z,56.4
2015-08-31T01:52:52.925Z,56.21
2015-08-31T01:53:05.300Z,56.11
2015-08-31T01:53:17.675Z,56.49
2015-08-31T01:53:30.053Z,56.11
2015-08-31T01:53:42.428Z,56.21
2015-08-31T01:53:54.819Z,55.73
2015-08-31T01:54:07.194Z,55.54
2015-08-31T01:54:19.569Z,55.35
2015-08-31T01:54:31.945Z,55.54
2015-08-31T01:54:44.320Z,55.07
2015-08-31T01:54:56.710Z,55.26
2015-08-31T01:55:09.085Z,55.16
2015-08-31T01:55:21.460Z,54.88
2015-08-31T01:55:33.853Z,54.88
2015-08-31T01:55:46.228Z,54.97
2015-08-31T01:55:58.603Z,54.97
2015-08-31T01:56:10.978Z,54.88
2015-08-31T01:56:23.353Z,54.97
2015-08-31T01:56:35.730Z,54.88
2015-08-31T01:56:48.105Z,55.07
2015-08-31T01:57:00.495Z,54.97
2015-08-31T01:57:12.870Z,54.97
2015-08-31T01:57:25.245Z,54.97
2015-08-31T01:57:37.622Z,54.88
2015-08-31T01:57:49.997Z,54.78
2015-08-31T01:58:02.372Z,55.26
2015-08-31T01:58:14.747Z,55.26
2015-08-31T01:58:27.138Z,55.35
2015-08-31T01:58:39.516Z,55.26
2015-08-31T01:58:51.907Z,55.07
2015-08-31T01:59:04.297Z,55.07
2015-08-31T01:59:16.704Z,55.07
2015-08-31T01:59:29.094Z,54.97
2015-08-31T01:59:41.517Z,55.26
2015-08-31T01:59:53.908Z,55.07
2015-08-31T02:00:06.314Z,54.97
2015-08-31T02:00:18.720Z,55.16
2015-08-31T02:00:31.126Z,55.35
2015-08-31T02:00:43.535Z,55.16
2015-08-31T02:00:55.941Z,55.16
2015-08-31T02:01:07.628Z,55.07
2015-08-31T02:01:20.050Z,55.16
2015-08-31T02:01:32.457Z,55.16
2015-08-31T02:01:44.865Z,54.97
2015-08-31T02:01:57.287Z,55.16
2015-08-31T02:02:09.677Z,55.35
2015-08-31T02:02:22.052Z,54.97
2015-08-31T02:02:34.427Z,55.16
2015-08-31T02:02:46.804Z,55.26
2015-08-31T02:02:59.195Z,55.35
2015-08-31T02:03:11.570Z,55.07
2015-08-31T02:03:23.945Z,54.97
2015-08-31T02:03:36.320Z,55.07
2015-08-31T02:03:48.713Z,55.16
2015-08-31T02:04:01.088Z,55.16
2015-08-31T02:04:13.463Z,55.16
2015-08-31T02:04:25.838Z,55.26
2015-08-31T02:04:38.213Z,54.88
2015-08-31T02:04:50.590Z,54.88
2015-08-31T02:05:02.980Z,54.88
2015-08-31T02:05:15.340Z,54.97
2015-08-31T02:05:27.730Z,54.88
2015-08-31T02:05:40.105Z,54.97
2015-08-31T02:05:52.482Z,54.97
2015-08-31T02:06:04.857Z,54.88
2015-08-31T02:06:17.232Z,55.16
2015-08-31T02:06:29.607Z,54.88
2015-08-31T02:06:41.982Z,54.78
2015-08-31T02:06:54.375Z,54.68
2015-08-31T02:07:06.750Z,54.49
2015-08-31T02:07:19.125Z,54.59
2015-08-31T02:07:30.781Z,54.68
2015-08-31T02:07:43.156Z,54.49
2015-08-31T02:07:55.533Z,54.88
2015-08-31T02:08:07.939Z,55.16
2015-08-31T02:08:20.330Z,54.97
2015-08-31T02:08:32.721Z,55.07
2015-08-31T02:08:45.127Z,54.88
2015-08-31T02:08:56.801Z,54.97
2015-08-31T02:09:09.207Z,54.97
2015-08-31T02:09:21.613Z,54.97
2015-08-31T02:09:34.019Z,54.88
2015-08-31T02:09:46.441Z,54.97
2015-08-31T02:09:58.146Z,55.07
2015-08-31T02:10:10.537Z,55.07
2015-08-31T02:10:22.943Z,54.78
2015-08-31T02:10:35.350Z,54.88
2015-08-31T02:10:47.771Z,55.07
2015-08-31T02:11:00.164Z,54.97
2015-08-31T02:11:12.570Z,55.16
2015-08-31T02:11:24.977Z,54.97
2015-08-31T02:11:37.367Z,55.07
2015-08-31T02:11:49.758Z,55.07
2015-08-31T02:12:02.135Z,54.97
2015-08-31T02:12:14.510Z,54.88
2015-08-31T02:12:26.885Z,54.97
2015-08-31T02:12:39.275Z,55.07
2015-08-31T02:12:51.650Z,54.78
2015-08-31T02:13:04.027Z,54.88
2015-08-31T02:13:16.418Z,54.88
2015-08-31T02:13:28.793Z,54.88
2015-08-31T02:13:41.168Z,54.97
2015-08-31T02:13:53.543Z,54.88
2015-08-31T02:14:05.920Z,54.88
2015-08-31T02:14:18.295Z,54.88
2015-08-31T02:14:30.670Z,54.88
2015-08-31T02:14:43.061Z,54.88
2015-08-31T02:14:55.436Z,54.97
2015-08-31T02:15:07.797Z,54.68
2015-08-31T02:15:20.172Z,54.78
2015-08-31T02:15:32.547Z,54.68
2015-08-31T02:15:44.922Z,54.88
2015-08-31T02:15:56.578Z,54.78
2015-08-31T02:16:08.971Z,54.88
2015-08-31T02:16:21.346Z,55.16
2015-08-31T02:16:33.721Z,55.16
2015-08-31T02:16:45.377Z,55.07
2015-08-31T02:16:57.752Z,55.16
2015-08-31T02:17:10.128Z,54.97
2015-08-31T02:17:22.503Z,54.88
2015-08-31T02:17:34.894Z,55.44
2015-08-31T02:17:47.284Z,55.35
2015-08-31T02:17:59.659Z,55.44
2015-08-31T02:18:12.053Z,55.26
2015-08-31T02:18:24.444Z,55.26
2015-08-31T02:18:36.834Z,55.26
2015-08-31T02:18:49.225Z,55.16
2015-08-31T02:19:01.647Z,55.26
2015-08-31T02:19:14.055Z,55.16
2015-08-31T02:19:26.493Z,55.16
2015-08-31T02:19:38.868Z,55.07
2015-08-31T02:19:51.243Z,55.16
2015-08-31T02:20:03.633Z,55.26
2015-08-31T02:20:15.994Z,55.26
2015-08-31T02:20:27.665Z,55.26
2015-08-31T02:20:40.040Z,55.26
2015-08-31T02:20:51.697Z,55.16
2015-08-31T02:21:04.087Z,54.97
2015-08-31T02:21:16.464Z,55.16
2015-08-31T02:21:28.839Z,55.44
2015-08-31T02:21:41.230Z,54.97
2015-08-31T02:21:53.605Z,55.07
2015-08-31T02:22:05.980Z,55.16
2015-08-31T02:22:18.342Z,55.44
2015-08-31T02:22:30.717Z,55.54
2015-08-31T02:22:43.092Z,55.63
2015-08-31T02:22:55.467Z,55.63
2015-08-31T02:23:07.842Z,55.35
2015-08-31T02:23:20.235Z,55.44
2015-08-31T02:23:32.610Z,55.26
2015-08-31T02:23:44.985Z,55.26
2015-08-31T02:23:57.376Z,55.44
2015-08-31T02:24:09.751Z,55.44
2015-08-31T02:24:22.128Z,55.44
2015-08-31T02:24:34.456Z,55.44
2015-08-31T02:24:46.831Z,55.54
2015-08-31T02:24:59.581Z,55.63
2015-08-31T02:25:11.940Z,55.44
2015-08-31T02:25:24.333Z,55.54
2015-08-31T02:25:36.723Z,55.54
2015-08-31T02:25:49.114Z,55.54
2015-08-31T02:26:01.489Z,55.54
2015-08-31T02:26:13.880Z,55.44
2015-08-31T02:26:26.257Z,55.63
2015-08-31T02:26:38.663Z,55.63
2015-08-31T02:26:51.085Z,55.63
2015-08-31T02:27:03.475Z,55.63
2015-08-31T02:27:15.882Z,55.73
2015-08-31T02:27:28.289Z,55.63
2015-08-31T02:27:40.711Z,55.92
2015-08-31T02:27:53.117Z,55.73
2015-08-31T02:28:05.492Z,55.63
2015-08-31T02:28:17.867Z,55.83
2015-08-31T02:28:30.244Z,55.83
2015-08-31T02:28:42.619Z,55.83
2015-08-31T02:28:54.994Z,55.83
2015-08-31T02:29:07.369Z,55.73
2015-08-31T02:29:19.744Z,55.73
2015-08-31T02:29:32.122Z,55.73
2015-08-31T02:29:44.497Z,55.73
2015-08-31T02:29:56.888Z,55.73
2015-08-31T02:30:09.263Z,55.73
2015-08-31T02:30:21.638Z,55.73
2015-08-31T02:30:34.014Z,55.73
2015-08-31T02:30:46.389Z,55.73
2015-08-31T02:30:58.779Z,55.63
2015-08-31T02:31:11.154Z,55.73
2015-08-31T02:31:23.529Z,55.73
2015-08-31T02:31:35.891Z,55.63
2015-08-31T02:31:48.266Z,55.73
2015-08-31T02:32:00.641Z,56.02
2015-08-31T02:32:13.016Z,55.92
2015-08-31T02:32:25.406Z,55.92
2015-08-31T02:32:37.768Z,55.92
2015-08-31T02:32:49.439Z,55.92
2015-08-31T02:33:01.814Z,56.02
2015-08-31T02:33:14.189Z,55.83
2015-08-31T02:33:26.564Z,55.83
2015-08-31T02:33:38.941Z,55.83
2015-08-31T02:33:51.332Z,55.92
2015-08-31T02:34:03.738Z,55.83
2015-08-31T02:34:16.113Z,55.73
2015-08-31T02:34:28.504Z,55.83
2015-08-31T02:34:40.898Z,55.73
2015-08-31T02:34:53.273Z,56.02
2015-08-31T02:35:05.679Z,55.73
2015-08-31T02:35:18.085Z,55.73
2015-08-31T02:35:30.507Z,55.83
2015-08-31T02:35:42.915Z,55.73
2015-08-31T02:35:55.306Z,55.73
2015-08-31T02:36:07.712Z,55.73
2015-08-31T02:36:20.134Z,55.92
2015-08-31T02:36:32.525Z,55.73
2015-08-31T02:36:44.947Z,56.02
2015-08-31T02:36:57.354Z,55.73
2015-08-31T02:37:09.744Z,56.11
2015-08-31T02:37:22.151Z,56.11
2015-08-31T02:37:34.588Z,55.99
2015-08-31T02:37:46.966Z,55.92
2015-08-31T02:37:59.341Z,56.11
2015-08-31T02:38:11.716Z,55.83
2015-08-31T02:38:24.091Z,56.02
2015-08-31T02:38:36.466Z,56.02
2015-08-31T02:38:48.843Z,56.02
2015-08-31T02:39:01.218Z,56.21
2015-08-31T02:39:13.593Z,56.11
2015-08-31T02:39:25.968Z,56.11
2015-08-31T02:39:38.343Z,56.11